sensor_id;sensor_type;location;lat;lon;timestamp;P1;durP1;ratioP1;P2;durP2;ratioP2
19059;SDS011;9663;48.996;8.334;2022-10-16T00:01:21;1.77;;;0.70;;
19059;SDS011;9663;48.996;8.334;2022-10-16T00:03:50;1.85;;;0.68;;
19059;SDS011;9663;48.996;8.334;2022-10-16T00:06:17;1.65;;;0.60;;
19059;SDS011;9663;48.996;8.334;2022-10-16T00:08:46;1.70;;;0.60;;
19059;SDS011;9663;48.996;8.334;2022-10-16T00:11:17;3.08;;;0.77;;
19059;SDS011;9663;48.996;8.334;2022-10-16T00:13:58;1.95;;;0.63;;
19059;SDS011;9663;48.996;8.334;2022-10-16T00:16:27;2.13;;;0.77;;
19059;SDS011;9663;48.996;8.334;2022-10-16T00:18:53;1.70;;;0.70;;
19059;SDS011;9663;48.996;8.334;2022-10-16T00:21:21;1.55;;;0.57;;
19059;SDS011;9663;48.996;8.334;2022-10-16T00:23:50;2.03;;;0.60;;
19059;SDS011;9663;48.996;8.334;2022-10-16T00:26:18;1.50;;;0.60;;
19059;SDS011;9663;48.996;8.334;2022-10-16T00:28:50;2.83;;;0.75;;
19059;SDS011;9663;48.996;8.334;2022-10-16T00:31:17;1.27;;;0.60;;
19059;SDS011;9663;48.996;8.334;2022-10-16T00:33:46;2.42;;;0.50;;
19059;SDS011;9663;48.996;8.334;2022-10-16T00:36:14;2.17;;;0.75;;
19059;SDS011;9663;48.996;8.334;2022-10-16T00:38:43;1.42;;;0.60;;
19059;SDS011;9663;48.996;8.334;2022-10-16T00:41:13;2.15;;;0.60;;
19059;SDS011;9663;48.996;8.334;2022-10-16T00:43:43;2.15;;;0.80;;
19059;SDS011;9663;48.996;8.334;2022-10-16T00:46:56;2.42;;;0.77;;
19059;SDS011;9663;48.996;8.334;2022-10-16T00:49:16;2.00;;;0.80;;
19059;SDS011;9663;48.996;8.334;2022-10-16T00:51:48;2.17;;;0.73;;
19059;SDS011;9663;48.996;8.334;2022-10-16T00:56:47;4.10;;;0.70;;
19059;SDS011;9663;48.996;8.334;2022-10-16T00:59:18;1.73;;;0.70;;
19059;SDS011;9663;48.996;8.334;2022-10-16T01:01:49;2.00;;;0.50;;
19059;SDS011;9663;48.996;8.334;2022-10-16T01:04:16;1.38;;;0.60;;
19059;SDS011;9663;48.996;8.334;2022-10-16T01:06:46;1.35;;;0.50;;
19059;SDS011;9663;48.996;8.334;2022-10-16T01:15:29;2.40;;;0.90;;
19059;SDS011;9663;48.996;8.334;2022-10-16T01:18:08;1.85;;;0.50;;
19059;SDS011;9663;48.996;8.334;2022-10-16T01:23:32;2.53;;;0.70;;
19059;SDS011;9663;48.996;8.334;2022-10-16T01:26:14;3.05;;;0.80;;
19059;SDS011;9663;48.996;8.334;2022-10-16T01:32:31;2.08;;;0.70;;
19059;SDS011;9663;48.996;8.334;2022-10-16T01:38:37;4.03;;;0.70;;
19059;SDS011;9663;48.996;8.334;2022-10-16T01:40:59;2.92;;;0.90;;
19059;SDS011;9663;48.996;8.334;2022-10-16T01:43:37;2.88;;;0.98;;
19059;SDS011;9663;48.996;8.334;2022-10-16T01:46:27;1.48;;;0.57;;
19059;SDS011;9663;48.996;8.334;2022-10-16T01:48:56;3.40;;;0.60;;
19059;SDS011;9663;48.996;8.334;2022-10-16T01:51:23;1.52;;;0.60;;
19059;SDS011;9663;48.996;8.334;2022-10-16T01:53:53;2.38;;;0.80;;
19059;SDS011;9663;48.996;8.334;2022-10-16T01:56:23;1.80;;;0.73;;
19059;SDS011;9663;48.996;8.334;2022-10-16T01:59:07;2.30;;;0.82;;
19059;SDS011;9663;48.996;8.334;2022-10-16T02:01:39;1.58;;;0.70;;
19059;SDS011;9663;48.996;8.334;2022-10-16T02:04:21;2.10;;;0.63;;
19059;SDS011;9663;48.996;8.334;2022-10-16T02:06:56;2.17;;;0.63;;
19059;SDS011;9663;48.996;8.334;2022-10-16T02:09:22;1.42;;;0.70;;
19059;SDS011;9663;48.996;8.334;2022-10-16T02:11:48;1.75;;;0.65;;
19059;SDS011;9663;48.996;8.334;2022-10-16T02:14:18;2.78;;;0.68;;
19059;SDS011;9663;48.996;8.334;2022-10-16T02:16:46;1.30;;;0.60;;
19059;SDS011;9663;48.996;8.334;2022-10-16T02:19:13;2.28;;;0.70;;
19059;SDS011;9663;48.996;8.334;2022-10-16T02:21:49;1.30;;;0.60;;
19059;SDS011;9663;48.996;8.334;2022-10-16T02:27:10;1.88;;;0.65;;
19059;SDS011;9663;48.996;8.334;2022-10-16T02:30:00;2.03;;;0.70;;
19059;SDS011;9663;48.996;8.334;2022-10-16T02:32:41;2.53;;;0.43;;
19059;SDS011;9663;48.996;8.334;2022-10-16T02:35:11;1.52;;;0.70;;
19059;SDS011;9663;48.996;8.334;2022-10-16T02:37:39;2.47;;;0.60;;
19059;SDS011;9663;48.996;8.334;2022-10-16T02:40:07;0.93;;;0.50;;
19059;SDS011;9663;48.996;8.334;2022-10-16T02:42:38;1.27;;;0.55;;
19059;SDS011;9663;48.996;8.334;2022-10-16T02:45:05;2.97;;;0.70;;
19059;SDS011;9663;48.996;8.334;2022-10-16T02:47:34;1.40;;;0.70;;
19059;SDS011;9663;48.996;8.334;2022-10-16T02:50:00;1.55;;;0.60;;
19059;SDS011;9663;48.996;8.334;2022-10-16T02:52:26;1.75;;;0.60;;
19059;SDS011;9663;48.996;8.334;2022-10-16T02:54:51;1.90;;;0.70;;
19059;SDS011;9663;48.996;8.334;2022-10-16T02:57:17;1.67;;;0.73;;
19059;SDS011;9663;48.996;8.334;2022-10-16T02:59:44;3.33;;;0.82;;
19059;SDS011;9663;48.996;8.334;2022-10-16T03:02:10;3.50;;;0.80;;
19059;SDS011;9663;48.996;8.334;2022-10-16T03:04:36;2.40;;;0.70;;
19059;SDS011;9663;48.996;8.334;2022-10-16T03:07:02;1.73;;;0.70;;
19059;SDS011;9663;48.996;8.334;2022-10-16T03:09:28;3.78;;;0.68;;
19059;SDS011;9663;48.996;8.334;2022-10-16T03:11:54;1.23;;;0.50;;
19059;SDS011;9663;48.996;8.334;2022-10-16T03:14:20;2.63;;;0.70;;
19059;SDS011;9663;48.996;8.334;2022-10-16T03:16:46;1.88;;;0.73;;
19059;SDS011;9663;48.996;8.334;2022-10-16T03:19:11;1.73;;;0.60;;
19059;SDS011;9663;48.996;8.334;2022-10-16T03:21:37;1.48;;;0.65;;
19059;SDS011;9663;48.996;8.334;2022-10-16T03:24:03;1.60;;;0.60;;
19059;SDS011;9663;48.996;8.334;2022-10-16T03:26:29;1.40;;;0.50;;
19059;SDS011;9663;48.996;8.334;2022-10-16T03:28:55;2.03;;;0.75;;
19059;SDS011;9663;48.996;8.334;2022-10-16T03:31:20;1.50;;;0.57;;
19059;SDS011;9663;48.996;8.334;2022-10-16T03:33:47;1.98;;;0.68;;
19059;SDS011;9663;48.996;8.334;2022-10-16T03:36:12;1.65;;;0.50;;
19059;SDS011;9663;48.996;8.334;2022-10-16T03:38:38;1.63;;;0.65;;
19059;SDS011;9663;48.996;8.334;2022-10-16T03:41:03;2.00;;;0.70;;
19059;SDS011;9663;48.996;8.334;2022-10-16T03:43:29;3.42;;;0.85;;
19059;SDS011;9663;48.996;8.334;2022-10-16T03:45:55;1.15;;;0.60;;
19059;SDS011;9663;48.996;8.334;2022-10-16T03:48:21;1.42;;;0.63;;
19059;SDS011;9663;48.996;8.334;2022-10-16T03:50:46;1.70;;;0.70;;
19059;SDS011;9663;48.996;8.334;2022-10-16T03:53:13;1.75;;;0.70;;
19059;SDS011;9663;48.996;8.334;2022-10-16T03:55:43;1.17;;;0.60;;
19059;SDS011;9663;48.996;8.334;2022-10-16T03:58:09;3.83;;;0.80;;
19059;SDS011;9663;48.996;8.334;2022-10-16T04:00:35;2.22;;;0.70;;
19059;SDS011;9663;48.996;8.334;2022-10-16T04:03:05;1.73;;;0.63;;
19059;SDS011;9663;48.996;8.334;2022-10-16T04:05:31;1.65;;;0.70;;
19059;SDS011;9663;48.996;8.334;2022-10-16T04:07:56;1.80;;;0.70;;
19059;SDS011;9663;48.996;8.334;2022-10-16T04:10:22;1.48;;;0.52;;
19059;SDS011;9663;48.996;8.334;2022-10-16T04:12:48;1.55;;;0.60;;
19059;SDS011;9663;48.996;8.334;2022-10-16T04:15:13;2.45;;;0.70;;
19059;SDS011;9663;48.996;8.334;2022-10-16T04:17:39;2.05;;;0.77;;
19059;SDS011;9663;48.996;8.334;2022-10-16T04:20:05;1.88;;;0.70;;
19059;SDS011;9663;48.996;8.334;2022-10-16T04:22:31;1.75;;;0.70;;
19059;SDS011;9663;48.996;8.334;2022-10-16T04:24:57;3.35;;;0.80;;
19059;SDS011;9663;48.996;8.334;2022-10-16T04:27:22;1.80;;;0.80;;
19059;SDS011;9663;48.996;8.334;2022-10-16T04:29:48;2.35;;;0.77;;
19059;SDS011;9663;48.996;8.334;2022-10-16T04:32:14;2.35;;;0.80;;
19059;SDS011;9663;48.996;8.334;2022-10-16T04:34:39;2.90;;;0.73;;
19059;SDS011;9663;48.996;8.334;2022-10-16T04:37:05;1.48;;;0.80;;
19059;SDS011;9663;48.996;8.334;2022-10-16T04:39:31;1.80;;;0.70;;
19059;SDS011;9663;48.996;8.334;2022-10-16T04:41:57;4.90;;;0.80;;
19059;SDS011;9663;48.996;8.334;2022-10-16T04:44:22;3.30;;;0.70;;
19059;SDS011;9663;48.996;8.334;2022-10-16T04:46:50;3.38;;;0.80;;
19059;SDS011;9663;48.996;8.334;2022-10-16T04:49:16;3.10;;;0.90;;
19059;SDS011;9663;48.996;8.334;2022-10-16T04:51:42;2.28;;;0.90;;
19059;SDS011;9663;48.996;8.334;2022-10-16T04:54:08;1.25;;;0.60;;
19059;SDS011;9663;48.996;8.334;2022-10-16T04:56:35;4.32;;;0.70;;
19059;SDS011;9663;48.996;8.334;2022-10-16T04:59:08;2.40;;;0.82;;
19059;SDS011;9663;48.996;8.334;2022-10-16T05:01:34;1.38;;;0.60;;
19059;SDS011;9663;48.996;8.334;2022-10-16T05:04:00;2.42;;;0.80;;
19059;SDS011;9663;48.996;8.334;2022-10-16T05:06:26;3.25;;;0.70;;
19059;SDS011;9663;48.996;8.334;2022-10-16T05:08:52;1.92;;;0.80;;
19059;SDS011;9663;48.996;8.334;2022-10-16T05:11:17;2.03;;;0.80;;
19059;SDS011;9663;48.996;8.334;2022-10-16T05:13:43;2.28;;;0.80;;
19059;SDS011;9663;48.996;8.334;2022-10-16T05:16:09;2.17;;;0.73;;
19059;SDS011;9663;48.996;8.334;2022-10-16T05:18:35;2.75;;;1.00;;
19059;SDS011;9663;48.996;8.334;2022-10-16T05:21:00;3.80;;;0.90;;
19059;SDS011;9663;48.996;8.334;2022-10-16T05:23:26;2.33;;;0.80;;
19059;SDS011;9663;48.996;8.334;2022-10-16T05:25:52;1.77;;;0.77;;
19059;SDS011;9663;48.996;8.334;2022-10-16T05:28:23;1.58;;;0.60;;
19059;SDS011;9663;48.996;8.334;2022-10-16T05:30:51;1.95;;;0.60;;
19059;SDS011;9663;48.996;8.334;2022-10-16T05:33:19;1.95;;;0.73;;
19059;SDS011;9663;48.996;8.334;2022-10-16T05:35:46;1.98;;;0.70;;
19059;SDS011;9663;48.996;8.334;2022-10-16T05:38:12;1.90;;;0.70;;
19059;SDS011;9663;48.996;8.334;2022-10-16T05:40:38;2.70;;;0.70;;
19059;SDS011;9663;48.996;8.334;2022-10-16T05:43:04;1.85;;;0.70;;
19059;SDS011;9663;48.996;8.334;2022-10-16T05:45:30;2.28;;;0.70;;
19059;SDS011;9663;48.996;8.334;2022-10-16T05:47:55;2.05;;;0.70;;
19059;SDS011;9663;48.996;8.334;2022-10-16T05:50:21;2.28;;;0.70;;
19059;SDS011;9663;48.996;8.334;2022-10-16T05:52:47;4.03;;;0.93;;
19059;SDS011;9663;48.996;8.334;2022-10-16T05:55:12;1.85;;;0.70;;
19059;SDS011;9663;48.996;8.334;2022-10-16T05:57:38;1.55;;;0.60;;
19059;SDS011;9663;48.996;8.334;2022-10-16T06:00:04;1.83;;;0.70;;
19059;SDS011;9663;48.996;8.334;2022-10-16T06:02:31;5.30;;;0.70;;
19059;SDS011;9663;48.996;8.334;2022-10-16T06:04:56;1.73;;;0.68;;
19059;SDS011;9663;48.996;8.334;2022-10-16T06:07:22;1.85;;;0.70;;
19059;SDS011;9663;48.996;8.334;2022-10-16T06:09:51;1.75;;;0.75;;
19059;SDS011;9663;48.996;8.334;2022-10-16T06:12:18;2.65;;;0.65;;
19059;SDS011;9663;48.996;8.334;2022-10-16T06:14:45;2.03;;;0.60;;
19059;SDS011;9663;48.996;8.334;2022-10-16T06:17:14;1.33;;;0.55;;
19059;SDS011;9663;48.996;8.334;2022-10-16T06:19:40;1.80;;;0.60;;
19059;SDS011;9663;48.996;8.334;2022-10-16T06:22:05;1.80;;;0.60;;
19059;SDS011;9663;48.996;8.334;2022-10-16T06:24:31;1.90;;;0.60;;
19059;SDS011;9663;48.996;8.334;2022-10-16T06:26:57;2.40;;;0.60;;
19059;SDS011;9663;48.996;8.334;2022-10-16T06:29:23;1.95;;;0.63;;
19059;SDS011;9663;48.996;8.334;2022-10-16T06:31:49;1.50;;;0.68;;
19059;SDS011;9663;48.996;8.334;2022-10-16T06:34:14;1.58;;;0.50;;
19059;SDS011;9663;48.996;8.334;2022-10-16T06:36:40;1.30;;;0.50;;
19059;SDS011;9663;48.996;8.334;2022-10-16T06:39:08;1.55;;;0.60;;
19059;SDS011;9663;48.996;8.334;2022-10-16T06:41:34;2.72;;;0.80;;
19059;SDS011;9663;48.996;8.334;2022-10-16T06:44:00;2.22;;;0.70;;
19059;SDS011;9663;48.996;8.334;2022-10-16T06:46:29;1.88;;;0.82;;
19059;SDS011;9663;48.996;8.334;2022-10-16T06:48:55;2.55;;;0.77;;
19059;SDS011;9663;48.996;8.334;2022-10-16T06:51:21;4.43;;;0.80;;
19059;SDS011;9663;48.996;8.334;2022-10-16T06:53:51;1.98;;;0.70;;
19059;SDS011;9663;48.996;8.334;2022-10-16T06:56:23;3.13;;;0.70;;
19059;SDS011;9663;48.996;8.334;2022-10-16T06:58:51;2.55;;;0.90;;
19059;SDS011;9663;48.996;8.334;2022-10-16T07:01:19;2.00;;;0.70;;
19059;SDS011;9663;48.996;8.334;2022-10-16T07:03:48;2.08;;;0.70;;
19059;SDS011;9663;48.996;8.334;2022-10-16T07:06:17;2.22;;;0.80;;
19059;SDS011;9663;48.996;8.334;2022-10-16T07:08:46;1.70;;;0.60;;
19059;SDS011;9663;48.996;8.334;2022-10-16T07:11:18;1.60;;;0.70;;
19059;SDS011;9663;48.996;8.334;2022-10-16T07:13:47;2.15;;;0.70;;
19059;SDS011;9663;48.996;8.334;2022-10-16T07:16:15;2.17;;;0.80;;
19059;SDS011;9663;48.996;8.334;2022-10-16T07:18:46;1.90;;;0.60;;
19059;SDS011;9663;48.996;8.334;2022-10-16T07:21:15;1.55;;;0.65;;
19059;SDS011;9663;48.996;8.334;2022-10-16T07:23:44;1.95;;;0.70;;
19059;SDS011;9663;48.996;8.334;2022-10-16T07:26:13;2.65;;;0.82;;
19059;SDS011;9663;48.996;8.334;2022-10-16T07:28:40;1.63;;;0.70;;
19059;SDS011;9663;48.996;8.334;2022-10-16T07:31:11;1.45;;;0.60;;
19059;SDS011;9663;48.996;8.334;2022-10-16T07:33:42;1.55;;;0.60;;
19059;SDS011;9663;48.996;8.334;2022-10-16T07:36:11;2.05;;;0.80;;
19059;SDS011;9663;48.996;8.334;2022-10-16T07:38:38;1.70;;;0.50;;
19059;SDS011;9663;48.996;8.334;2022-10-16T07:41:06;1.73;;;0.65;;
19059;SDS011;9663;48.996;8.334;2022-10-16T07:43:36;0.93;;;0.50;;
19059;SDS011;9663;48.996;8.334;2022-10-16T07:46:02;0.95;;;0.50;;
19059;SDS011;9663;48.996;8.334;2022-10-16T07:48:30;1.60;;;0.70;;
19059;SDS011;9663;48.996;8.334;2022-10-16T07:51:02;3.25;;;0.70;;
19059;SDS011;9663;48.996;8.334;2022-10-16T07:53:30;2.10;;;0.70;;
19059;SDS011;9663;48.996;8.334;2022-10-16T07:56:01;1.95;;;0.70;;
19059;SDS011;9663;48.996;8.334;2022-10-16T07:58:34;2.38;;;0.70;;
19059;SDS011;9663;48.996;8.334;2022-10-16T08:01:06;2.47;;;0.70;;
19059;SDS011;9663;48.996;8.334;2022-10-16T08:03:35;1.70;;;0.60;;
19059;SDS011;9663;48.996;8.334;2022-10-16T08:06:01;1.85;;;0.55;;
19059;SDS011;9663;48.996;8.334;2022-10-16T08:08:28;1.67;;;0.70;;
19059;SDS011;9663;48.996;8.334;2022-10-16T08:10:55;2.05;;;0.60;;
19059;SDS011;9663;48.996;8.334;2022-10-16T08:13:21;2.55;;;0.82;;
19059;SDS011;9663;48.996;8.334;2022-10-16T08:15:47;2.13;;;0.77;;
19059;SDS011;9663;48.996;8.334;2022-10-16T08:18:13;2.75;;;1.10;;
19059;SDS011;9663;48.996;8.334;2022-10-16T08:20:40;4.07;;;0.93;;
19059;SDS011;9663;48.996;8.334;2022-10-16T08:23:09;2.55;;;0.90;;
19059;SDS011;9663;48.996;8.334;2022-10-16T08:25:37;3.97;;;1.05;;
19059;SDS011;9663;48.996;8.334;2022-10-16T08:28:03;5.55;;;0.85;;
19059;SDS011;9663;48.996;8.334;2022-10-16T08:30:34;1.98;;;0.70;;
19059;SDS011;9663;48.996;8.334;2022-10-16T08:33:00;1.40;;;0.65;;
19059;SDS011;9663;48.996;8.334;2022-10-16T08:35:28;2.03;;;0.80;;
19059;SDS011;9663;48.996;8.334;2022-10-16T08:37:54;2.08;;;0.80;;
19059;SDS011;9663;48.996;8.334;2022-10-16T08:40:24;3.45;;;0.80;;
19059;SDS011;9663;48.996;8.334;2022-10-16T08:46:09;2.25;;;0.70;;
19059;SDS011;9663;48.996;8.334;2022-10-16T08:48:58;1.95;;;0.70;;
19059;SDS011;9663;48.996;8.334;2022-10-16T08:51:29;2.28;;;0.70;;
19059;SDS011;9663;48.996;8.334;2022-10-16T08:54:15;2.13;;;0.75;;
19059;SDS011;9663;48.996;8.334;2022-10-16T08:57:00;2.55;;;0.70;;
19059;SDS011;9663;48.996;8.334;2022-10-16T08:59:36;2.03;;;0.77;;
19059;SDS011;9663;48.996;8.334;2022-10-16T09:02:01;3.03;;;0.70;;
19059;SDS011;9663;48.996;8.334;2022-10-16T09:04:49;3.83;;;0.90;;
19059;SDS011;9663;48.996;8.334;2022-10-16T09:07:39;2.60;;;0.80;;
19059;SDS011;9663;48.996;8.334;2022-10-16T09:10:23;1.70;;;0.60;;
19059;SDS011;9663;48.996;8.334;2022-10-16T09:15:50;3.08;;;0.73;;
19059;SDS011;9663;48.996;8.334;2022-10-16T09:21:35;2.15;;;0.73;;
19059;SDS011;9663;48.996;8.334;2022-10-16T09:24:14;1.77;;;0.70;;
19059;SDS011;9663;48.996;8.334;2022-10-16T09:26:43;1.50;;;0.70;;
19059;SDS011;9663;48.996;8.334;2022-10-16T09:29:14;2.60;;;0.88;;
19059;SDS011;9663;48.996;8.334;2022-10-16T09:31:46;1.90;;;0.70;;
19059;SDS011;9663;48.996;8.334;2022-10-16T09:37:04;1.77;;;0.70;;
19059;SDS011;9663;48.996;8.334;2022-10-16T09:39:44;2.05;;;0.80;;
19059;SDS011;9663;48.996;8.334;2022-10-16T09:44:57;2.13;;;0.82;;
19059;SDS011;9663;48.996;8.334;2022-10-16T09:47:23;1.88;;;0.73;;
19059;SDS011;9663;48.996;8.334;2022-10-16T09:52:28;2.22;;;0.90;;
19059;SDS011;9663;48.996;8.334;2022-10-16T09:54:59;2.45;;;0.90;;
19059;SDS011;9663;48.996;8.334;2022-10-16T09:57:48;2.55;;;0.80;;
19059;SDS011;9663;48.996;8.334;2022-10-16T10:00:24;2.45;;;0.90;;
19059;SDS011;9663;48.996;8.334;2022-10-16T10:03:33;1.83;;;0.60;;
19059;SDS011;9663;48.996;8.334;2022-10-16T10:08:53;2.70;;;0.82;;
19059;SDS011;9663;48.996;8.334;2022-10-16T10:14:36;2.80;;;1.05;;
19059;SDS011;9663;48.996;8.334;2022-10-16T10:19:55;1.35;;;0.60;;
19059;SDS011;9663;48.996;8.334;2022-10-16T10:30:29;2.78;;;0.80;;
19059;SDS011;9663;48.996;8.334;2022-10-16T10:33:25;1.85;;;0.75;;
19059;SDS011;9663;48.996;8.334;2022-10-16T10:39:00;4.82;;;0.95;;
19059;SDS011;9663;48.996;8.334;2022-10-16T10:44:32;1.58;;;0.68;;
19059;SDS011;9663;48.996;8.334;2022-10-16T10:47:38;2.05;;;0.85;;
19059;SDS011;9663;48.996;8.334;2022-10-16T10:50:26;2.13;;;0.70;;
19059;SDS011;9663;48.996;8.334;2022-10-16T10:56:41;2.92;;;0.70;;
19059;SDS011;9663;48.996;8.334;2022-10-16T11:02:26;2.15;;;0.80;;
19059;SDS011;9663;48.996;8.334;2022-10-16T11:11:01;1.88;;;0.65;;
19059;SDS011;9663;48.996;8.334;2022-10-16T11:13:59;3.47;;;0.82;;
19059;SDS011;9663;48.996;8.334;2022-10-16T11:17:16;2.80;;;0.80;;
19059;SDS011;9663;48.996;8.334;2022-10-16T11:19:58;1.42;;;0.60;;
19059;SDS011;9663;48.996;8.334;2022-10-16T11:22:38;2.58;;;0.90;;
19059;SDS011;9663;48.996;8.334;2022-10-16T11:27:54;1.55;;;0.55;;
19059;SDS011;9663;48.996;8.334;2022-10-16T11:30:26;3.47;;;0.80;;
19059;SDS011;9663;48.996;8.334;2022-10-16T11:36:13;2.30;;;0.70;;
19059;SDS011;9663;48.996;8.334;2022-10-16T11:38:57;2.15;;;0.80;;
19059;SDS011;9663;48.996;8.334;2022-10-16T11:41:44;1.23;;;0.50;;
19059;SDS011;9663;48.996;8.334;2022-10-16T11:47:35;2.13;;;0.70;;
19059;SDS011;9663;48.996;8.334;2022-10-16T11:50:19;2.30;;;0.80;;
19059;SDS011;9663;48.996;8.334;2022-10-16T11:52:55;1.52;;;0.68;;
19059;SDS011;9663;48.996;8.334;2022-10-16T11:55:49;1.45;;;0.60;;
19059;SDS011;9663;48.996;8.334;2022-10-16T11:58:16;2.10;;;0.77;;
19059;SDS011;9663;48.996;8.334;2022-10-16T12:03:50;1.55;;;0.70;;
19059;SDS011;9663;48.996;8.334;2022-10-16T12:07:02;1.27;;;0.50;;
19059;SDS011;9663;48.996;8.334;2022-10-16T12:09:36;1.58;;;0.65;;
19059;SDS011;9663;48.996;8.334;2022-10-16T12:12:05;3.50;;;0.60;;
19059;SDS011;9663;48.996;8.334;2022-10-16T12:15:20;2.10;;;0.60;;
19059;SDS011;9663;48.996;8.334;2022-10-16T12:17:52;2.10;;;0.80;;
19059;SDS011;9663;48.996;8.334;2022-10-16T12:20:21;2.10;;;0.77;;
19059;SDS011;9663;48.996;8.334;2022-10-16T12:22:56;1.67;;;0.68;;
19059;SDS011;9663;48.996;8.334;2022-10-16T12:25:32;2.22;;;0.90;;
19059;SDS011;9663;48.996;8.334;2022-10-16T12:30:53;1.52;;;0.70;;
19059;SDS011;9663;48.996;8.334;2022-10-16T12:33:24;2.65;;;0.70;;
19059;SDS011;9663;48.996;8.334;2022-10-16T12:35:52;3.03;;;0.73;;
19059;SDS011;9663;48.996;8.334;2022-10-16T12:38:27;1.85;;;0.65;;
19059;SDS011;9663;48.996;8.334;2022-10-16T12:41:24;3.13;;;0.65;;
19059;SDS011;9663;48.996;8.334;2022-10-16T12:44:00;1.58;;;0.60;;
19059;SDS011;9663;48.996;8.334;2022-10-16T12:51:46;1.88;;;0.65;;
19059;SDS011;9663;48.996;8.334;2022-10-16T12:54:13;2.67;;;0.80;;
19059;SDS011;9663;48.996;8.334;2022-10-16T12:59:51;1.52;;;0.60;;
19059;SDS011;9663;48.996;8.334;2022-10-16T13:08:19;1.48;;;0.68;;
19059;SDS011;9663;48.996;8.334;2022-10-16T13:11:14;1.67;;;0.70;;
19059;SDS011;9663;48.996;8.334;2022-10-16T13:20:16;2.40;;;0.68;;
19059;SDS011;9663;48.996;8.334;2022-10-16T13:28:32;2.60;;;0.80;;
19059;SDS011;9663;48.996;8.334;2022-10-16T13:31:00;1.75;;;0.63;;
19059;SDS011;9663;48.996;8.334;2022-10-16T13:36:24;1.60;;;0.70;;
19059;SDS011;9663;48.996;8.334;2022-10-16T13:42:02;2.50;;;0.80;;
19059;SDS011;9663;48.996;8.334;2022-10-16T13:44:35;1.85;;;0.70;;
19059;SDS011;9663;48.996;8.334;2022-10-16T13:47:17;2.33;;;1.15;;
19059;SDS011;9663;48.996;8.334;2022-10-16T13:50:02;2.85;;;0.60;;
19059;SDS011;9663;48.996;8.334;2022-10-16T13:52:43;2.03;;;0.80;;
19059;SDS011;9663;48.996;8.334;2022-10-16T13:55:12;2.58;;;0.80;;
19059;SDS011;9663;48.996;8.334;2022-10-16T13:57:41;2.13;;;0.70;;
19059;SDS011;9663;48.996;8.334;2022-10-16T14:00:21;1.80;;;0.60;;
19059;SDS011;9663;48.996;8.334;2022-10-16T14:02:55;2.53;;;0.70;;
19059;SDS011;9663;48.996;8.334;2022-10-16T14:05:28;1.02;;;0.50;;
19059;SDS011;9663;48.996;8.334;2022-10-16T14:07:54;1.83;;;0.70;;
19059;SDS011;9663;48.996;8.334;2022-10-16T14:10:27;2.50;;;0.80;;
19059;SDS011;9663;48.996;8.334;2022-10-16T14:12:57;2.00;;;0.65;;
19059;SDS011;9663;48.996;8.334;2022-10-16T14:15:30;2.65;;;0.90;;
19059;SDS011;9663;48.996;8.334;2022-10-16T14:17:59;1.00;;;0.50;;
19059;SDS011;9663;48.996;8.334;2022-10-16T14:20:29;1.92;;;0.70;;
19059;SDS011;9663;48.996;8.334;2022-10-16T14:23:44;4.32;;;1.23;;
19059;SDS011;9663;48.996;8.334;2022-10-16T14:26:04;1.85;;;0.75;;
19059;SDS011;9663;48.996;8.334;2022-10-16T14:28:34;2.70;;;1.00;;
19059;SDS011;9663;48.996;8.334;2022-10-16T14:31:41;2.00;;;0.88;;
19059;SDS011;9663;48.996;8.334;2022-10-16T14:34:01;5.00;;;0.90;;
19059;SDS011;9663;48.996;8.334;2022-10-16T14:36:28;3.00;;;1.10;;
19059;SDS011;9663;48.996;8.334;2022-10-16T14:39:03;2.50;;;1.00;;
19059;SDS011;9663;48.996;8.334;2022-10-16T14:41:43;6.50;;;1.20;;
19059;SDS011;9663;48.996;8.334;2022-10-16T14:44:12;2.30;;;0.88;;
19059;SDS011;9663;48.996;8.334;2022-10-16T14:46:42;1.83;;;0.70;;
19059;SDS011;9663;48.996;8.334;2022-10-16T14:51:36;1.42;;;0.65;;
19059;SDS011;9663;48.996;8.334;2022-10-16T14:54:07;2.72;;;0.75;;
19059;SDS011;9663;48.996;8.334;2022-10-16T14:56:45;1.70;;;0.70;;
19059;SDS011;9663;48.996;8.334;2022-10-16T14:59:30;2.65;;;0.90;;
19059;SDS011;9663;48.996;8.334;2022-10-16T15:04:48;3.25;;;0.82;;
19059;SDS011;9663;48.996;8.334;2022-10-16T15:07:14;2.90;;;0.90;;
19059;SDS011;9663;48.996;8.334;2022-10-16T15:09:40;3.47;;;1.00;;
19059;SDS011;9663;48.996;8.334;2022-10-16T15:12:05;2.67;;;0.80;;
19059;SDS011;9663;48.996;8.334;2022-10-16T15:14:31;3.15;;;1.02;;
19059;SDS011;9663;48.996;8.334;2022-10-16T15:16:57;3.03;;;1.02;;
19059;SDS011;9663;48.996;8.334;2022-10-16T15:19:23;2.17;;;0.80;;
19059;SDS011;9663;48.996;8.334;2022-10-16T15:21:48;2.90;;;1.08;;
19059;SDS011;9663;48.996;8.334;2022-10-16T15:24:14;2.55;;;0.98;;
19059;SDS011;9663;48.996;8.334;2022-10-16T15:26:40;2.85;;;1.10;;
19059;SDS011;9663;48.996;8.334;2022-10-16T15:29:06;5.70;;;1.20;;
19059;SDS011;9663;48.996;8.334;2022-10-16T15:31:33;2.42;;;1.00;;
19059;SDS011;9663;48.996;8.334;2022-10-16T15:33:59;2.50;;;0.95;;
19059;SDS011;9663;48.996;8.334;2022-10-16T15:36:29;2.60;;;0.98;;
19059;SDS011;9663;48.996;8.334;2022-10-16T15:39:01;4.45;;;1.02;;
19059;SDS011;9663;48.996;8.334;2022-10-16T15:41:37;2.50;;;1.02;;
19059;SDS011;9663;48.996;8.334;2022-10-16T15:44:03;3.80;;;1.30;;
19059;SDS011;9663;48.996;8.334;2022-10-16T15:46:28;2.97;;;1.20;;
19059;SDS011;9663;48.996;8.334;2022-10-16T15:48:56;3.03;;;1.25;;
19059;SDS011;9663;48.996;8.334;2022-10-16T15:51:23;2.30;;;0.90;;
19059;SDS011;9663;48.996;8.334;2022-10-16T15:53:52;2.33;;;1.00;;
19059;SDS011;9663;48.996;8.334;2022-10-16T15:56:18;2.58;;;1.00;;
19059;SDS011;9663;48.996;8.334;2022-10-16T15:58:44;3.95;;;1.27;;
19059;SDS011;9663;48.996;8.334;2022-10-16T16:01:10;3.15;;;1.10;;
19059;SDS011;9663;48.996;8.334;2022-10-16T16:03:37;3.13;;;1.00;;
19059;SDS011;9663;48.996;8.334;2022-10-16T16:06:08;4.00;;;1.10;;
19059;SDS011;9663;48.996;8.334;2022-10-16T16:08:36;3.25;;;1.30;;
19059;SDS011;9663;48.996;8.334;2022-10-16T16:13:32;3.72;;;1.45;;
19059;SDS011;9663;48.996;8.334;2022-10-16T16:15:58;3.10;;;1.10;;
19059;SDS011;9663;48.996;8.334;2022-10-16T16:18:24;3.55;;;1.38;;
19059;SDS011;9663;48.996;8.334;2022-10-16T16:20:51;4.15;;;1.25;;
19059;SDS011;9663;48.996;8.334;2022-10-16T16:23:17;3.22;;;1.40;;
19059;SDS011;9663;48.996;8.334;2022-10-16T16:25:44;3.75;;;1.45;;
19059;SDS011;9663;48.996;8.334;2022-10-16T16:28:26;4.35;;;1.10;;
19059;SDS011;9663;48.996;8.334;2022-10-16T16:30:52;3.72;;;1.30;;
19059;SDS011;9663;48.996;8.334;2022-10-16T16:33:17;3.67;;;1.40;;
19059;SDS011;9663;48.996;8.334;2022-10-16T16:35:43;2.72;;;1.10;;
19059;SDS011;9663;48.996;8.334;2022-10-16T16:38:09;3.30;;;1.30;;
19059;SDS011;9663;48.996;8.334;2022-10-16T16:40:34;4.20;;;1.20;;
19059;SDS011;9663;48.996;8.334;2022-10-16T16:43:00;2.85;;;1.10;;
19059;SDS011;9663;48.996;8.334;2022-10-16T16:45:25;2.80;;;1.13;;
19059;SDS011;9663;48.996;8.334;2022-10-16T16:47:51;2.80;;;1.05;;
19059;SDS011;9663;48.996;8.334;2022-10-16T16:50:17;3.65;;;1.35;;
19059;SDS011;9663;48.996;8.334;2022-10-16T16:52:42;3.30;;;1.30;;
19059;SDS011;9663;48.996;8.334;2022-10-16T16:55:08;3.33;;;1.45;;
19059;SDS011;9663;48.996;8.334;2022-10-16T16:57:33;5.65;;;1.52;;
19059;SDS011;9663;48.996;8.334;2022-10-16T16:59:59;3.80;;;1.50;;
19059;SDS011;9663;48.996;8.334;2022-10-16T17:02:25;4.43;;;1.83;;
19059;SDS011;9663;48.996;8.334;2022-10-16T17:04:50;5.90;;;3.00;;
19059;SDS011;9663;48.996;8.334;2022-10-16T17:07:16;6.10;;;2.70;;
19059;SDS011;9663;48.996;8.334;2022-10-16T17:09:42;5.20;;;2.60;;
19059;SDS011;9663;48.996;8.334;2022-10-16T17:12:08;6.93;;;2.20;;
19059;SDS011;9663;48.996;8.334;2022-10-16T17:14:33;4.40;;;1.80;;
19059;SDS011;9663;48.996;8.334;2022-10-16T17:16:59;4.53;;;1.70;;
19059;SDS011;9663;48.996;8.334;2022-10-16T17:19:24;3.70;;;1.65;;
19059;SDS011;9663;48.996;8.334;2022-10-16T17:21:50;5.00;;;2.10;;
19059;SDS011;9663;48.996;8.334;2022-10-16T17:24:16;4.05;;;1.40;;
19059;SDS011;9663;48.996;8.334;2022-10-16T17:26:43;5.88;;;2.08;;
19059;SDS011;9663;48.996;8.334;2022-10-16T17:29:13;4.18;;;1.52;;
19059;SDS011;9663;48.996;8.334;2022-10-16T17:31:39;4.40;;;2.00;;